Aérodrome :
LOGIN :

S'inscrire | Disclaimer

   EN    FR    IT 

 










Légende :    VFR   VFR Marginal   IFR   IFR Intensif   IFR Très Intensif
Visi : 
Plafond : 
>= 8 km
>= 3000ft
5 à 8 km
1000 à 3000 ft
1500m à 5 km
500 à 1000 ft
800 à 1500m
200 à 500 ft
< 800m
< 200 ft
Symboles :   Orages  Brouillard  Fortes neiges  Fortes précipitations  Vent > 20 kt
SIGMETs :   Divers  Orages  Givrage  Turbulence  Onde Orograph.  Cendres Volcan.







- Altitude de l'aérodrome : 83 ft
- Code IATA : LHR
- Voir les cartes d'approche


EGLL - London Heathrow

DERNIER METAR :
  • 260650Z AUTO 24011KT 9999 NCD 09/05 Q1016 NOSIG

METARs EXPIRÉS :
  • 260620Z AUTO 24011KT 9999 NCD 08/05 Q1016
  • 260550Z AUTO 23011KT 9999 NCD 07/05 Q1016 NOSIG
  • 260520Z AUTO 23009KT 9999 NCD 07/05 Q1016 NOSIG
  • 260450Z AUTO 24009KT 9999 NCD 06/05 Q1015 NOSIG
  • 260420Z AUTO 24009KT 9999 NCD 07/05 Q1015 NOSIG

TAF TAF EGLL
Valide du 26 à 06h jusqu'au 27 à 12h UTC


260452Z 2606/2712 25012KT 9999 FEW045
PROB40
TEMPO 2610/2616 26015G25KT
BECMG 2623/2702 17008KT
PROB40
TEMPO 2706/2712 7000 RA
Pas de NOTAMs connus pour ce terrain.



MET'MAP, la Météo Aéronautique d'un coup d'oeil ! - Copyright ORBIFLY Décembre 2007 - Disclaimer

ORBIFLY MET'MAP TEAM :

Programmation & Développement : Alexandra Zaïnal
Conception & Développement : Baudouin d'Aumeries
Co-Programmation & Développement : Marc-Olivier Méhu
Soutien technique & logistique : Manuel Goepfert

Contact : metmap@orbifly.com




SOURCES & CREDITS :

   NOAA